Aérodrome :
LOGIN :

S'inscrire | Disclaimer

   EN    FR    IT 

 










Légende :    VFR   VFR Marginal   IFR   IFR Intensif   IFR Très Intensif
Visi : 
Plafond : 
>= 8 km
>= 3000ft
5 à 8 km
1000 à 3000 ft
1500m à 5 km
500 à 1000 ft
800 à 1500m
200 à 500 ft
< 800m
< 200 ft
Symboles :   Orages  Brouillard  Fortes neiges  Fortes précipitations  Vent > 20 kt
SIGMETs :   Divers  Orages  Givrage  Turbulence  Onde Orograph.  Cendres Volcan.







- Altitude de l'aérodrome : 2077 ft
- Code IATA : FMM


EDJA - Memmingen

DERNIER METAR :
  • 171420Z 29010KT 9999 SCT069TCU BKN084 27/12 Q1017

METARs EXPIRÉS :
  • 171350Z 20005KT 130V270 CAVOK 28/12 Q1017
  • 171320Z 15005KT 100V180 CAVOK 28/12 Q1017
  • 171250Z VRB06KT CAVOK 29/13 Q1017
  • 171220Z 21005KT 170V270 CAVOK 27/12 Q1017
  • 171150Z 25006KT 190V310 9999 FEW059 SCT076 27/12 Q1017

TAF TAF EDJA
Valide du 17 à 12h jusqu'au 17 à 21h UTC


171100Z 1712/1721 28007KT CAVOK
PROB30
TEMPO 1715/1720 32020G35KT TSRA BKN060CB
Pas de NOTAMs connus pour ce terrain.



MET'MAP, la Météo Aéronautique d'un coup d'oeil ! - Copyright ORBIFLY Décembre 2007 - Disclaimer

ORBIFLY MET'MAP TEAM :

Programmation & Développement : Alexandra Zaïnal
Conception & Développement : Baudouin d'Aumeries
Co-Programmation & Développement : Marc-Olivier Méhu
Soutien technique & logistique : Manuel Goepfert

Contact : metmap@orbifly.com




SOURCES & CREDITS :

   NOAA